createdAt,value
2022-09-04T00:00:39.404Z,64.98
2022-09-04T00:01:44.966Z,65.69
2022-09-04T00:02:39.395Z,65.59
2022-09-04T00:03:39.477Z,65.49
2022-09-04T00:04:39.468Z,65.19
2022-09-04T00:05:39.381Z,66.19
2022-09-04T00:06:39.318Z,64.58
2022-09-04T00:07:39.321Z,65.99
2022-09-04T00:08:39.313Z,66.19
2022-09-04T00:09:39.297Z,65.99
2022-09-04T00:10:39.313Z,66.09
2022-09-04T00:11:39.297Z,65.79
2022-09-04T00:12:39.261Z,65.29
2022-09-04T00:13:39.234Z,65.99
2022-09-04T00:14:39.247Z,66.39
2022-09-04T00:15:39.249Z,66.53
2022-09-04T00:16:39.288Z,66.63
2022-09-04T00:17:39.211Z,66.13
2022-09-04T00:18:39.173Z,65.92
2022-09-04T00:19:39.176Z,66.53
2022-09-04T00:20:39.192Z,66.63
2022-09-04T00:21:39.139Z,66.42
2022-09-04T00:22:39.150Z,66.42
2022-09-04T00:23:39.148Z,65.82
2022-09-04T00:24:39.129Z,65.92
2022-09-04T00:25:39.115Z,66.53
2022-09-04T00:26:39.098Z,67.03
2022-09-04T00:27:39.073Z,66.53
2022-09-04T00:28:39.086Z,66.33
2022-09-04T00:29:39.099Z,66.73
2022-09-04T00:30:39.095Z,66.22
2022-09-04T00:31:39.032Z,65.92
2022-09-04T00:32:39.047Z,66.83
2022-09-04T00:33:39.013Z,66.83
2022-09-04T00:34:38.992Z,66.93
2022-09-04T00:35:39.649Z,66.53
2022-09-04T00:36:38.991Z,66.53
2022-09-04T00:37:38.962Z,67.13
2022-09-04T00:38:38.982Z,67.03
2022-09-04T00:39:38.991Z,67.07
2022-09-04T00:40:38.982Z,67.07
2022-09-04T00:41:38.924Z,67.07
2022-09-04T00:42:38.918Z,66.66
2022-09-04T00:43:38.899Z,67.27
2022-09-04T00:44:38.910Z,67.57
2022-09-04T00:45:38.945Z,67.27
2022-09-04T00:46:38.878Z,67.67
2022-09-04T00:47:38.869Z,67.67
2022-09-04T00:48:38.849Z,67.67
2022-09-04T00:49:38.835Z,67.57
2022-09-04T00:50:38.853Z,66.76
2022-09-04T00:51:38.810Z,67.27
2022-09-04T00:52:38.791Z,67.47
2022-09-04T00:53:38.829Z,67.27
2022-09-04T00:54:38.788Z,67.67
2022-09-04T00:55:38.786Z,67.47
2022-09-04T00:56:38.770Z,67.67
2022-09-04T00:57:38.744Z,67.77
2022-09-04T00:58:38.735Z,67.36
2022-09-04T00:59:38.730Z,67.90
2022-09-04T01:00:38.739Z,67.70
2022-09-04T01:01:39.035Z,67.60
2022-09-04T01:02:38.687Z,67.60
2022-09-04T01:03:38.690Z,67.70
2022-09-04T01:04:38.656Z,67.60
2022-09-04T01:05:38.677Z,67.60
2022-09-04T01:06:38.659Z,67.90
2022-09-04T01:07:38.618Z,67.90
2022-09-04T01:08:38.625Z,67.90
2022-09-04T01:09:38.626Z,68.01
2022-09-04T01:10:38.617Z,68.10
2022-09-04T01:11:38.587Z,67.90
2022-09-04T01:12:38.626Z,67.50
2022-09-04T01:13:38.556Z,68.21
2022-09-04T01:14:38.567Z,67.19
2022-09-04T01:15:38.578Z,67.60
2022-09-04T01:16:38.618Z,67.19
2022-09-04T01:17:38.517Z,67.50
2022-09-04T01:18:38.521Z,68.30
2022-09-04T01:19:38.500Z,67.90
2022-09-04T01:20:38.509Z,67.90
2022-09-04T01:21:38.502Z,67.60
2022-09-04T01:22:38.457Z,68.01
2022-09-04T01:23:38.462Z,67.50
2022-09-04T01:24:38.436Z,68.21
2022-09-04T01:25:38.456Z,67.60
2022-09-04T01:26:38.423Z,67.80
2022-09-04T01:27:38.427Z,68.10
2022-09-04T01:28:38.396Z,67.70
2022-09-04T01:29:38.414Z,67.60
2022-09-04T01:30:38.392Z,68.01
2022-09-04T01:31:38.435Z,67.73
2022-09-04T01:32:38.345Z,67.43
2022-09-04T01:33:38.361Z,67.10
2022-09-04T01:34:38.325Z,67.10
2022-09-04T01:35:38.339Z,68.24
2022-09-04T01:36:38.308Z,67.93
2022-09-04T01:37:38.303Z,68.64
2022-09-04T01:38:38.286Z,68.64
2022-09-04T01:39:38.383Z,67.63
2022-09-04T01:40:38.276Z,68.54
2022-09-04T01:41:38.749Z,67.83
2022-09-04T01:42:38.255Z,68.24
2022-09-04T01:43:38.245Z,68.24
2022-09-04T01:44:38.222Z,68.24
2022-09-04T01:45:38.323Z,68.04
2022-09-04T01:46:38.206Z,68.24
2022-09-04T01:47:38.182Z,68.84
2022-09-04T01:48:38.169Z,68.33
2022-09-04T01:49:38.209Z,67.93
2022-09-04T01:50:38.179Z,67.83
2022-09-04T01:51:38.162Z,68.33
2022-09-04T01:52:38.153Z,68.44
2022-09-04T01:53:38.117Z,68.77
2022-09-04T01:54:38.100Z,68.98
2022-09-04T01:55:38.144Z,68.98
2022-09-04T01:56:38.087Z,69.08
2022-09-04T01:57:38.081Z,69.28
2022-09-04T01:58:38.089Z,68.98
2022-09-04T01:59:38.067Z,69.18
2022-09-04T02:00:38.057Z,69.08
2022-09-04T02:01:38.039Z,69.38
2022-09-04T02:02:38.100Z,69.48
2022-09-04T02:03:38.035Z,69.58
2022-09-04T02:04:38.013Z,69.58
2022-09-04T02:05:38.023Z,69.28
2022-09-04T02:06:37.976Z,69.38
2022-09-04T02:07:37.982Z,69.71
2022-09-04T02:08:37.967Z,69.71
2022-09-04T02:09:37.939Z,69.51
2022-09-04T02:10:37.941Z,69.92
2022-09-04T02:11:37.921Z,70.02
2022-09-04T02:12:37.911Z,69.82
2022-09-04T02:13:37.908Z,69.82
2022-09-04T02:14:37.896Z,69.82
2022-09-04T02:15:37.898Z,70.02
2022-09-04T02:16:37.939Z,69.92
2022-09-04T02:17:37.847Z,70.02
2022-09-04T02:18:37.844Z,70.02
2022-09-04T02:19:37.833Z,70.12
2022-09-04T02:20:37.827Z,70.12
2022-09-04T02:21:37.805Z,70.02
2022-09-04T02:22:37.810Z,70.22
2022-09-04T02:23:37.787Z,70.22
2022-09-04T02:24:37.798Z,70.32
2022-09-04T02:25:37.791Z,70.32
2022-09-04T02:26:37.756Z,70.42
2022-09-04T02:27:37.758Z,70.53
2022-09-04T02:28:37.743Z,70.56
2022-09-04T02:29:37.736Z,70.46
2022-09-04T02:30:37.722Z,70.76
2022-09-04T02:31:37.726Z,70.36
2022-09-04T02:32:37.681Z,70.66
2022-09-04T02:33:37.671Z,70.66
2022-09-04T02:34:37.663Z,70.76
2022-09-04T02:35:37.683Z,70.66
2022-09-04T02:36:37.635Z,70.86
2022-09-04T02:37:37.640Z,70.76
2022-09-04T02:38:37.615Z,70.66
2022-09-04T02:39:37.662Z,70.66
2022-09-04T02:40:37.613Z,70.86
2022-09-04T02:41:37.582Z,71.06
2022-09-04T02:42:37.579Z,71.06
2022-09-04T02:43:37.567Z,71.06
2022-09-04T02:44:37.566Z,71.26
2022-09-04T02:45:37.573Z,71.60
2022-09-04T02:46:42.566Z,71.60
2022-09-04T02:47:37.531Z,71.60
2022-09-04T02:48:37.517Z,71.60
2022-09-04T02:49:37.505Z,71.50
2022-09-04T02:50:37.514Z,71.91
2022-09-04T02:51:37.486Z,71.70
2022-09-04T02:52:37.466Z,71.70
2022-09-04T02:53:37.467Z,71.70
2022-09-04T02:54:37.434Z,71.91
2022-09-04T02:55:37.447Z,71.91
2022-09-04T02:56:37.429Z,72.01
2022-09-04T02:57:37.417Z,72.21
2022-09-04T02:58:37.423Z,72.34
2022-09-04T02:59:37.394Z,72.65
2022-09-04T03:00:37.431Z,72.34
2022-09-04T03:01:37.405Z,72.44
2022-09-04T03:02:37.357Z,72.44
2022-09-04T03:03:37.357Z,72.55
2022-09-04T03:04:37.339Z,72.34
2022-09-04T03:05:37.349Z,72.55
2022-09-04T03:06:37.314Z,72.14
2022-09-04T03:07:37.302Z,72.55
2022-09-04T03:08:37.286Z,72.44
2022-09-04T03:09:37.308Z,72.55
2022-09-04T03:10:37.289Z,72.34
2022-09-04T03:11:37.269Z,72.34
2022-09-04T03:12:37.239Z,72.34
2022-09-04T03:13:37.263Z,72.38
2022-09-04T03:14:37.236Z,72.95
2022-09-04T03:15:37.238Z,72.99
2022-09-04T03:16:37.248Z,72.99
2022-09-04T03:17:37.185Z,72.78
2022-09-04T03:18:37.183Z,73.09
2022-09-04T03:19:37.275Z,72.88
2022-09-04T03:20:37.191Z,72.88
2022-09-04T03:21:37.149Z,72.88
2022-09-04T03:22:37.140Z,72.68
2022-09-04T03:23:37.130Z,72.58
2022-09-04T03:24:37.129Z,73.09
2022-09-04T03:25:37.113Z,73.09
2022-09-04T03:26:37.112Z,73.49
2022-09-04T03:27:37.072Z,73.39
2022-09-04T03:28:37.075Z,73.49
2022-09-04T03:29:37.065Z,73.49
2022-09-04T03:30:37.073Z,73.39
2022-09-04T03:31:37.121Z,73.39
2022-09-04T03:32:37.021Z,73.09
2022-09-04T03:33:37.007Z,73.29
2022-09-04T03:34:36.998Z,73.29
2022-09-04T03:35:37.013Z,73.49
2022-09-04T03:36:36.992Z,73.49
2022-09-04T03:37:36.972Z,73.29
2022-09-04T03:38:36.966Z,73.90
2022-09-04T03:39:37.027Z,73.93
2022-09-04T03:40:36.962Z,73.63
2022-09-04T03:41:36.932Z,73.53
2022-09-04T03:42:36.920Z,73.93
2022-09-04T03:43:36.897Z,74.24
2022-09-04T03:44:36.906Z,73.93
2022-09-04T03:45:36.896Z,74.13
2022-09-04T03:46:36.931Z,74.24
2022-09-04T03:47:36.861Z,74.13
2022-09-04T03:48:36.858Z,74.33
2022-09-04T03:49:36.828Z,74.33
2022-09-04T03:50:36.850Z,74.54
2022-09-04T03:51:36.852Z,74.13
2022-09-04T03:52:36.814Z,74.13
2022-09-04T03:53:36.795Z,74.24
2022-09-04T03:54:36.794Z,74.33
2022-09-04T03:55:36.790Z,74.33
2022-09-04T03:56:36.782Z,74.54
2022-09-04T03:57:36.755Z,74.33
2022-09-04T03:58:36.751Z,74.24
2022-09-04T03:59:38.062Z,74.04
2022-09-04T04:00:36.817Z,73.93
2022-09-04T04:01:36.698Z,73.83
2022-09-04T04:02:36.773Z,74.04
2022-09-04T04:03:36.703Z,74.17
2022-09-04T04:04:36.685Z,74.24
2022-09-04T04:05:36.689Z,74.57
2022-09-04T04:06:36.668Z,74.98
2022-09-04T04:07:36.634Z,74.98
2022-09-04T04:08:36.624Z,74.48
2022-09-04T04:09:36.628Z,74.48
2022-09-04T04:10:36.620Z,74.77
2022-09-04T04:11:41.317Z,75.08
2022-09-04T04:12:36.618Z,74.88
2022-09-04T04:13:36.570Z,74.68
2022-09-04T04:14:36.551Z,74.57
2022-09-04T04:15:36.586Z,74.88
2022-09-04T04:16:36.608Z,74.98
2022-09-04T04:17:36.527Z,74.88
2022-09-04T04:18:36.535Z,74.98
2022-09-04T04:19:36.511Z,75.38
2022-09-04T04:20:36.505Z,75.49
2022-09-04T04:21:36.486Z,75.28
2022-09-04T04:22:36.462Z,75.28
2022-09-04T04:23:36.454Z,75.69
2022-09-04T04:24:36.455Z,75.59
2022-09-04T04:25:36.456Z,75.38
2022-09-04T04:26:36.424Z,75.38
2022-09-04T04:27:36.409Z,75.52
2022-09-04T04:28:36.404Z,75.82
2022-09-04T04:29:36.395Z,75.52
2022-09-04T04:30:36.383Z,75.93
2022-09-04T04:31:36.457Z,75.12
2022-09-04T04:32:36.343Z,75.42
2022-09-04T04:33:36.351Z,75.32
2022-09-04T04:34:36.339Z,75.82
2022-09-04T04:35:36.339Z,75.93
2022-09-04T04:36:36.333Z,75.93
2022-09-04T04:37:36.294Z,75.82
2022-09-04T04:38:36.282Z,75.73
2022-09-04T04:39:36.341Z,75.93
2022-09-04T04:40:36.299Z,75.93
2022-09-04T04:41:36.258Z,75.82
2022-09-04T04:42:36.230Z,75.93
2022-09-04T04:43:36.226Z,76.43
2022-09-04T04:44:36.215Z,76.33
2022-09-04T04:45:36.215Z,76.33
2022-09-04T04:46:36.268Z,76.54
2022-09-04T04:47:36.182Z,76.13
2022-09-04T04:48:36.168Z,76.03
2022-09-04T04:49:36.164Z,75.73
2022-09-04T04:50:36.188Z,76.13
2022-09-04T04:51:36.187Z,76.03
2022-09-04T04:52:36.124Z,76.13
2022-09-04T04:53:36.117Z,76.23
2022-09-04T04:54:36.099Z,76.13
2022-09-04T04:55:36.117Z,76.33
2022-09-04T04:56:36.075Z,76.13
2022-09-04T04:57:36.071Z,76.13
2022-09-04T04:58:36.061Z,76.43
2022-09-04T04:59:36.043Z,75.93
2022-09-04T05:00:36.051Z,75.62
2022-09-04T05:01:36.106Z,75.73
2022-09-04T05:02:36.115Z,75.93
2022-09-04T05:03:36.003Z,76.23
2022-09-04T05:04:35.976Z,76.54
2022-09-04T05:05:35.996Z,76.23
2022-09-04T05:06:35.958Z,76.43
2022-09-04T05:07:35.953Z,76.43
2022-09-04T05:08:35.934Z,76.54
2022-09-04T05:09:35.936Z,76.74
2022-09-04T05:10:35.929Z,76.33
2022-09-04T05:11:35.899Z,76.43
2022-09-04T05:12:35.900Z,76.43
2022-09-04T05:13:35.890Z,76.43
2022-09-04T05:14:35.872Z,76.43
2022-09-04T05:15:43.808Z,76.03
2022-09-04T05:16:35.902Z,75.82
2022-09-04T05:17:35.883Z,75.73
2022-09-04T05:18:35.832Z,76.13
2022-09-04T05:19:35.833Z,76.03
2022-09-04T05:20:35.820Z,76.23
2022-09-04T05:21:35.797Z,76.33
2022-09-04T05:22:35.811Z,76.33
2022-09-04T05:23:35.771Z,76.33
2022-09-04T05:24:35.758Z,76.33
2022-09-04T05:25:35.788Z,76.33
2022-09-04T05:26:35.740Z,76.23
2022-09-04T05:27:35.724Z,76.54
2022-09-04T05:28:35.725Z,76.54
2022-09-04T05:29:35.733Z,76.54
2022-09-04T05:30:35.706Z,76.20
2022-09-04T05:31:38.031Z,75.99
2022-09-04T05:32:35.657Z,75.89
2022-09-04T05:33:35.640Z,76.29
2022-09-04T05:34:35.638Z,76.40
2022-09-04T05:35:35.821Z,76.40
2022-09-04T05:36:35.657Z,76.80
2022-09-04T05:37:35.602Z,76.60
2022-09-04T05:38:35.615Z,76.70
2022-09-04T05:39:35.639Z,76.29
2022-09-04T05:40:35.584Z,76.40
2022-09-04T05:41:35.600Z,76.40
2022-09-04T05:42:35.550Z,76.20
2022-09-04T05:43:35.547Z,76.06
2022-09-04T05:44:35.544Z,75.96
2022-09-04T05:45:35.503Z,75.85
2022-09-04T05:46:35.571Z,75.76
2022-09-04T05:47:35.495Z,75.65
2022-09-04T05:48:35.486Z,75.65
2022-09-04T05:49:35.468Z,76.06
2022-09-04T05:50:35.467Z,76.26
2022-09-04T05:51:36.377Z,76.36
2022-09-04T05:52:35.444Z,76.06
2022-09-04T05:53:35.430Z,75.92
2022-09-04T05:54:35.409Z,76.23
2022-09-04T05:55:35.400Z,76.23
2022-09-04T05:56:35.434Z,75.72
2022-09-04T05:57:35.378Z,75.82
2022-09-04T05:58:35.373Z,75.72
2022-09-04T05:59:35.372Z,75.52
2022-09-04T06:00:35.364Z,75.48
2022-09-04T06:01:35.432Z,75.38
2022-09-04T06:02:35.376Z,75.38
2022-09-04T06:03:35.309Z,75.38
2022-09-04T06:04:35.301Z,75.48
2022-09-04T06:05:35.278Z,75.75
2022-09-04T06:06:35.283Z,75.45
2022-09-04T06:07:35.284Z,75.14
2022-09-04T06:08:35.256Z,74.74
2022-09-04T06:09:35.236Z,74.84
2022-09-04T06:10:35.223Z,74.50
2022-09-04T06:11:35.234Z,73.99
2022-09-04T06:12:35.254Z,74.30
2022-09-04T06:13:35.193Z,75.10
2022-09-04T06:14:35.203Z,75.01
2022-09-04T06:15:35.181Z,74.97
2022-09-04T06:16:35.173Z,74.57
2022-09-04T06:17:35.199Z,74.16
2022-09-04T06:18:35.157Z,74.46
2022-09-04T06:19:35.125Z,74.13
2022-09-04T06:20:35.114Z,73.93
2022-09-04T06:21:35.128Z,73.82
2022-09-04T06:22:35.142Z,73.02
2022-09-04T06:23:35.089Z,72.81
2022-09-04T06:24:35.077Z,72.38
2022-09-04T06:25:35.065Z,71.77
2022-09-04T06:26:35.113Z,71.67
2022-09-04T06:27:35.561Z,71.17
2022-09-04T06:28:35.034Z,71.17
2022-09-04T06:29:35.023Z,70.62
2022-09-04T06:30:35.045Z,70.73
2022-09-04T06:31:35.064Z,70.53
2022-09-04T06:32:34.992Z,71.03
2022-09-04T06:33:34.986Z,71.30
2022-09-04T06:34:34.977Z,70.59
2022-09-04T06:35:34.964Z,70.59
2022-09-04T06:36:34.951Z,70.39
2022-09-04T06:37:34.930Z,70.26
2022-09-04T06:38:34.944Z,69.95
2022-09-04T06:39:34.993Z,69.45
2022-09-04T06:40:34.909Z,69.55
2022-09-04T06:41:34.898Z,69.45
2022-09-04T06:42:34.889Z,69.65
2022-09-04T06:43:34.919Z,69.25
2022-09-04T06:44:34.865Z,69.55
2022-09-04T06:45:34.840Z,69.12
2022-09-04T06:46:34.940Z,68.71
2022-09-04T06:47:34.872Z,69.01
2022-09-04T06:48:34.853Z,68.91
2022-09-04T06:49:34.815Z,68.88
2022-09-04T06:50:34.788Z,68.88
2022-09-04T06:51:34.769Z,68.68
2022-09-04T06:52:34.762Z,68.88
2022-09-04T06:53:34.772Z,69.18
2022-09-04T06:54:34.741Z,68.58
2022-09-04T06:55:34.730Z,68.28
2022-09-04T06:56:34.738Z,68.55
2022-09-04T06:57:34.710Z,68.24
2022-09-04T06:58:34.730Z,67.84
2022-09-04T06:59:34.689Z,68.35
2022-09-04T07:00:34.682Z,69.32
2022-09-04T07:01:34.852Z,68.51
2022-09-04T07:02:34.819Z,68.41
2022-09-04T07:03:34.640Z,67.68
2022-09-04T07:04:34.655Z,67.51
2022-09-04T07:05:34.629Z,67.00
2022-09-04T07:06:34.615Z,66.87
2022-09-04T07:07:34.633Z,66.77
2022-09-04T07:08:34.596Z,66.77
2022-09-04T07:09:34.590Z,67.38
2022-09-04T07:10:34.593Z,67.47
2022-09-04T07:11:34.576Z,66.64
2022-09-04T07:12:34.554Z,66.84
2022-09-04T07:13:34.525Z,66.74
2022-09-04T07:14:34.553Z,66.84
2022-09-04T07:15:34.590Z,66.24
2022-09-04T07:16:34.491Z,66.03
2022-09-04T07:17:34.482Z,66.74
2022-09-04T07:18:34.495Z,66.00
2022-09-04T07:19:34.464Z,66.00
2022-09-04T07:20:34.482Z,65.91
2022-09-04T07:21:34.465Z,65.57
2022-09-04T07:22:34.429Z,65.57
2022-09-04T07:23:34.417Z,65.57
2022-09-04T07:24:34.407Z,65.34
2022-09-04T07:25:34.420Z,65.84
2022-09-04T07:26:34.381Z,65.14
2022-09-04T07:27:34.397Z,64.84
2022-09-04T07:28:34.358Z,64.94
2022-09-04T07:29:34.349Z,64.84
2022-09-04T07:30:34.362Z,64.91
2022-09-04T07:31:34.387Z,64.31
2022-09-04T07:32:34.314Z,64.71
2022-09-04T07:33:34.318Z,64.98
2022-09-04T07:34:34.289Z,64.28
2022-09-04T07:35:34.334Z,64.07
2022-09-04T07:36:34.267Z,63.87
2022-09-04T07:37:34.259Z,64.78
2022-09-04T07:38:34.249Z,63.47
2022-09-04T07:39:34.310Z,64.15
2022-09-04T07:40:34.294Z,63.95
2022-09-04T07:41:34.238Z,63.95
2022-09-04T07:42:34.207Z,63.64
2022-09-04T07:43:34.204Z,63.54
2022-09-04T07:44:34.182Z,64.04
2022-09-04T07:45:34.186Z,64.34
2022-09-04T07:46:34.232Z,63.95
2022-09-04T07:47:34.163Z,64.15
2022-09-04T07:48:34.146Z,64.04
2022-09-04T07:49:34.146Z,64.95
2022-09-04T07:50:34.120Z,64.15
2022-09-04T07:51:34.152Z,64.62
2022-09-04T07:52:34.112Z,64.72
2022-09-04T07:53:34.105Z,64.28
2022-09-04T07:54:34.069Z,63.78
2022-09-04T07:55:34.070Z,63.98
2022-09-04T07:56:34.074Z,63.78
2022-09-04T07:57:34.056Z,63.89
2022-09-04T07:58:34.042Z,63.78
2022-09-04T07:59:34.030Z,63.56
2022-09-04T08:00:34.005Z,63.35
2022-09-04T08:01:38.194Z,64.25
2022-09-04T08:02:34.006Z,63.62
2022-09-04T08:03:33.992Z,63.12
2022-09-04T08:04:34.008Z,63.22
2022-09-04T08:05:33.956Z,62.52
2022-09-04T08:06:33.961Z,62.92
2022-09-04T08:07:33.941Z,62.72
2022-09-04T08:08:33.912Z,62.49
2022-09-04T08:09:33.910Z,63.29
2022-09-04T08:10:33.895Z,62.79
2022-09-04T08:11:33.911Z,62.89
2022-09-04T08:12:33.875Z,62.89
2022-09-04T08:13:33.860Z,62.72
2022-09-04T08:14:33.853Z,63.12
2022-09-04T08:15:35.431Z,62.89
2022-09-04T08:16:33.830Z,62.99
2022-09-04T08:17:33.851Z,63.79
2022-09-04T08:18:33.798Z,63.19
2022-09-04T08:19:33.796Z,63.59
2022-09-04T08:20:33.788Z,63.89
2022-09-04T08:21:33.788Z,63.19
2022-09-04T08:22:33.804Z,63.46
2022-09-04T08:23:33.744Z,63.66
2022-09-04T08:24:33.757Z,63.56
2022-09-04T08:25:33.736Z,63.36
2022-09-04T08:26:33.719Z,63.76
2022-09-04T08:27:33.744Z,63.96
2022-09-04T08:28:33.703Z,64.36
2022-09-04T08:29:33.686Z,64.16
2022-09-04T08:30:33.693Z,64.36
2022-09-04T08:31:33.662Z,64.23
2022-09-04T08:32:38.531Z,64.43
2022-09-04T08:33:33.651Z,64.20
2022-09-04T08:34:33.632Z,63.90
2022-09-04T08:35:33.616Z,63.70
2022-09-04T08:36:33.615Z,63.93
2022-09-04T08:37:33.641Z,64.13
2022-09-04T08:38:33.585Z,64.13
2022-09-04T08:39:33.645Z,64.53
2022-09-04T08:40:33.557Z,64.80
2022-09-04T08:41:33.545Z,64.60
2022-09-04T08:42:33.539Z,64.27
2022-09-04T08:43:33.553Z,63.97
2022-09-04T08:44:33.519Z,64.77
2022-09-04T08:45:35.120Z,64.34
2022-09-04T08:46:33.589Z,64.24
2022-09-04T08:47:33.482Z,63.91
2022-09-04T08:48:33.509Z,63.31
2022-09-04T08:49:33.460Z,62.31
2022-09-04T08:50:33.465Z,63.41
2022-09-04T08:51:33.445Z,62.71
2022-09-04T08:52:33.424Z,62.41
2022-09-04T08:53:33.436Z,62.71
2022-09-04T08:54:33.471Z,62.41
2022-09-04T08:55:33.392Z,62.31
2022-09-04T08:56:33.387Z,62.21
2022-09-04T08:57:33.389Z,62.71
2022-09-04T08:58:34.336Z,63.18
2022-09-04T08:59:33.359Z,62.21
2022-09-04T09:00:33.362Z,62.31
2022-09-04T09:01:33.408Z,63.51
2022-09-04T09:02:33.361Z,63.01
2022-09-04T09:03:33.307Z,63.78
2022-09-04T09:04:33.321Z,62.41
2022-09-04T09:05:33.283Z,63.04
2022-09-04T09:06:33.290Z,62.71
2022-09-04T09:07:33.274Z,62.98
2022-09-04T09:08:33.397Z,62.38
2022-09-04T09:09:33.262Z,63.35
2022-09-04T09:10:33.234Z,63.05
2022-09-04T09:11:33.219Z,62.13
2022-09-04T09:12:36.748Z,62.32
2022-09-04T09:13:33.204Z,61.33
2022-09-04T09:14:33.212Z,60.63
2022-09-04T09:15:33.178Z,61.25
2022-09-04T09:16:33.201Z,61.46
2022-09-04T09:17:34.743Z,62.26
2022-09-04T09:18:33.156Z,62.23
2022-09-04T09:19:33.175Z,62.40
2022-09-04T09:20:33.118Z,61.30
2022-09-04T09:21:33.121Z,60.70
2022-09-04T09:22:33.096Z,61.37
2022-09-04T09:23:33.089Z,60.77
2022-09-04T09:24:33.103Z,60.97
2022-09-04T09:25:33.082Z,59.35
2022-09-04T09:26:33.054Z,59.55
2022-09-04T09:27:33.062Z,60.44
2022-09-04T09:28:33.036Z,59.65
2022-09-04T09:29:33.034Z,59.82
2022-09-04T09:30:33.082Z,59.32
2022-09-04T09:31:33.009Z,59.99
2022-09-04T09:32:32.984Z,59.49
2022-09-04T09:33:33.012Z,58.60
2022-09-04T09:34:32.963Z,59.79
2022-09-04T09:35:32.984Z,59.66
2022-09-04T09:36:32.942Z,59.56
2022-09-04T09:37:32.954Z,58.07
2022-09-04T09:38:32.919Z,59.07
2022-09-04T09:39:32.973Z,58.54
2022-09-04T09:40:32.927Z,58.64
2022-09-04T09:41:32.888Z,58.15
2022-09-04T09:42:32.873Z,58.22
2022-09-04T09:43:32.884Z,58.02
2022-09-04T09:44:32.864Z,58.12
2022-09-04T09:45:32.881Z,57.92
2022-09-04T09:46:32.832Z,58.12
2022-09-04T09:47:32.837Z,58.48
2022-09-04T09:48:32.815Z,57.20
2022-09-04T09:49:32.813Z,57.72
2022-09-04T09:50:32.817Z,57.50
2022-09-04T09:51:32.810Z,57.50
2022-09-04T09:52:32.772Z,57.59
2022-09-04T09:53:32.758Z,57.86
2022-09-04T09:54:32.743Z,57.37
2022-09-04T09:55:32.781Z,57.37
2022-09-04T09:56:32.755Z,56.28
2022-09-04T09:57:33.734Z,56.68
2022-09-04T09:58:32.706Z,57.34
2022-09-04T09:59:32.711Z,56.65
2022-09-04T10:00:32.905Z,56.35
2022-09-04T10:01:32.745Z,56.05
2022-09-04T10:02:32.734Z,56.57
2022-09-04T10:03:32.661Z,56.18
2022-09-04T10:04:34.194Z,56.68
2022-09-04T10:05:32.650Z,57.34
2022-09-04T10:06:32.635Z,56.65
2022-09-04T10:07:32.634Z,56.25
2022-09-04T10:08:35.656Z,57.41
2022-09-04T10:09:32.603Z,55.63
2022-09-04T10:10:32.616Z,56.32
2022-09-04T10:11:32.576Z,55.80
2022-09-04T10:12:32.557Z,56.89
2022-09-04T10:13:32.550Z,55.70
2022-09-04T10:14:32.535Z,55.77
2022-09-04T10:15:32.575Z,54.88
2022-09-04T10:16:32.598Z,55.60
2022-09-04T10:17:32.520Z,54.35
2022-09-04T10:18:32.521Z,55.46
2022-09-04T10:19:34.682Z,55.66
2022-09-04T10:20:32.481Z,55.36
2022-09-04T10:21:32.482Z,55.56
2022-09-04T10:22:32.460Z,55.98
2022-09-04T10:23:32.473Z,56.85
2022-09-04T10:24:32.426Z,56.92
2022-09-04T10:25:32.446Z,55.53
2022-09-04T10:26:32.455Z,56.00
2022-09-04T10:27:32.434Z,54.71
2022-09-04T10:28:32.411Z,55.21
2022-09-04T10:29:32.388Z,54.91
2022-09-04T10:30:32.445Z,55.18
2022-09-04T10:31:32.367Z,54.39
2022-09-04T10:32:32.349Z,55.38
2022-09-04T10:33:32.341Z,53.33
2022-09-04T10:34:32.332Z,54.91
2022-09-04T10:35:32.355Z,54.64
2022-09-04T10:36:32.300Z,54.84
2022-09-04T10:37:32.294Z,55.70
2022-09-04T10:38:32.296Z,55.70
2022-09-04T10:39:32.340Z,54.32
2022-09-04T10:40:32.301Z,55.38
2022-09-04T10:41:32.261Z,55.58
2022-09-04T10:42:32.235Z,53.97
2022-09-04T10:43:32.229Z,53.77
2022-09-04T10:44:32.245Z,54.93
2022-09-04T10:45:32.291Z,52.86
2022-09-04T10:46:32.243Z,53.25
2022-09-04T10:47:32.199Z,54.53
2022-09-04T10:48:32.180Z,53.64
2022-09-04T10:49:32.176Z,52.93
2022-09-04T10:50:32.143Z,53.00
2022-09-04T10:51:32.157Z,51.42
2022-09-04T10:52:32.117Z,51.82
2022-09-04T10:53:32.117Z,51.32
2022-09-04T10:54:32.135Z,51.03
2022-09-04T10:55:32.154Z,51.84
2022-09-04T10:56:32.100Z,52.44
2022-09-04T10:57:32.076Z,52.11
2022-09-04T10:58:32.060Z,51.23
2022-09-04T10:59:32.061Z,51.35
2022-09-04T11:00:32.061Z,50.76
2022-09-04T11:01:32.130Z,51.28
2022-09-04T11:02:32.102Z,51.37
2022-09-04T11:03:32.048Z,51.67
2022-09-04T11:04:32.031Z,53.45
2022-09-04T11:05:32.015Z,52.24
2022-09-04T11:06:32.000Z,50.54
2022-09-04T11:07:31.984Z,50.76
2022-09-04T11:08:31.952Z,50.36
2022-09-04T11:09:32.013Z,51.28
2022-09-04T11:10:31.953Z,51.57
2022-09-04T11:11:31.927Z,51.64
2022-09-04T11:12:31.923Z,49.96
2022-09-04T11:13:31.910Z,51.54
2022-09-04T11:14:31.895Z,51.64
2022-09-04T11:15:31.927Z,50.78
2022-09-04T11:16:32.019Z,51.00
2022-09-04T11:17:31.924Z,53.11
2022-09-04T11:18:31.927Z,51.82
2022-09-04T11:19:31.895Z,53.28
2022-09-04T11:20:31.866Z,54.17
2022-09-04T11:21:31.856Z,52.76
2022-09-04T11:22:31.819Z,53.69
2022-09-04T11:23:31.825Z,51.72
2022-09-04T11:24:31.847Z,50.81
2022-09-04T11:25:31.819Z,50.68
2022-09-04T11:26:31.780Z,50.07
2022-09-04T11:27:31.753Z,49.38
2022-09-04T11:28:31.768Z,49.40
2022-09-04T11:29:31.730Z,48.49
2022-09-04T11:30:31.736Z,49.40
2022-09-04T11:31:31.757Z,50.16
2022-09-04T11:32:31.766Z,49.87
2022-09-04T11:33:31.693Z,48.74
2022-09-04T11:34:31.678Z,49.92
2022-09-04T11:35:31.688Z,49.33
2022-09-04T11:36:31.691Z,50.54
2022-09-04T11:37:31.663Z,50.71
2022-09-04T11:38:31.643Z,50.81
2022-09-04T11:39:31.701Z,51.18
2022-09-04T11:40:31.610Z,50.76
2022-09-04T11:41:31.638Z,50.14
2022-09-04T11:42:31.620Z,50.31
2022-09-04T11:43:31.563Z,49.70
2022-09-04T11:44:31.576Z,47.14
2022-09-04T11:45:31.616Z,48.05
2022-09-04T11:46:31.569Z,48.83
2022-09-04T11:47:31.572Z,47.44
2022-09-04T11:48:31.549Z,48.42
2022-09-04T11:49:31.495Z,47.66
2022-09-04T11:50:31.566Z,47.68
2022-09-04T11:51:31.487Z,48.96
2022-09-04T11:52:31.494Z,49.06
2022-09-04T11:53:31.453Z,48.74
2022-09-04T11:54:31.443Z,49.13
2022-09-04T11:55:31.431Z,49.99
2022-09-04T11:56:31.445Z,46.75
2022-09-04T11:57:31.433Z,47.66
2022-09-04T11:58:31.429Z,48.05
2022-09-04T11:59:31.393Z,47.53
2022-09-04T12:00:31.398Z,46.94
2022-09-04T12:01:31.368Z,46.77
2022-09-04T12:02:31.427Z,47.78
2022-09-04T12:03:31.460Z,48.29
2022-09-04T12:04:31.406Z,48.10
2022-09-04T12:05:31.342Z,48.61
2022-09-04T12:06:31.313Z,48.02
2022-09-04T12:07:39.336Z,49.69
2022-09-04T12:08:31.301Z,48.93
2022-09-04T12:09:31.279Z,49.35
2022-09-04T12:10:31.279Z,49.84
2022-09-04T12:11:31.304Z,50.12
2022-09-04T12:12:31.239Z,50.81
2022-09-04T12:13:31.572Z,49.79
2022-09-04T12:14:31.219Z,51.18
2022-09-04T12:15:31.353Z,49.30
2022-09-04T12:16:31.280Z,49.90
2022-09-04T12:17:31.188Z,50.09
2022-09-04T12:18:31.186Z,49.30
2022-09-04T12:19:31.171Z,49.90
2022-09-04T12:20:31.171Z,50.09
2022-09-04T12:21:31.153Z,50.49
2022-09-04T12:22:31.152Z,49.69
2022-09-04T12:23:31.134Z,48.04
2022-09-04T12:24:31.103Z,49.62
2022-09-04T12:25:31.125Z,49.35
2022-09-04T12:26:31.128Z,51.13
2022-09-04T12:27:31.082Z,51.13
2022-09-04T12:28:31.083Z,51.03
2022-09-04T12:29:31.059Z,50.04
2022-09-04T12:30:31.064Z,50.54
2022-09-04T12:31:31.090Z,51.92
2022-09-04T12:32:31.029Z,50.54
2022-09-04T12:33:31.024Z,50.24
2022-09-04T12:34:31.025Z,50.43
2022-09-04T12:35:31.986Z,50.71
2022-09-04T12:36:30.986Z,50.02
2022-09-04T12:37:30.965Z,49.13
2022-09-04T12:38:30.949Z,50.61
2022-09-04T12:39:30.999Z,51.30
2022-09-04T12:40:30.946Z,50.04
2022-09-04T12:41:30.943Z,50.73
2022-09-04T12:42:30.896Z,51.40
2022-09-04T12:43:30.910Z,51.67
2022-09-04T12:44:30.880Z,50.76
2022-09-04T12:45:30.913Z,50.44
2022-09-04T12:46:30.858Z,49.33
2022-09-04T12:47:31.457Z,47.16
2022-09-04T12:48:30.832Z,46.57
2022-09-04T12:49:30.829Z,47.09
2022-09-04T12:50:30.856Z,48.27
2022-09-04T12:51:30.816Z,47.95
2022-09-04T12:52:30.803Z,46.18